Aérodrome :
LOGIN :

S'inscrire | Disclaimer

   EN    FR    IT 

 










Légende :    VFR   VFR Marginal   IFR   IFR Intensif   IFR Très Intensif
Visi : 
Plafond : 
>= 8 km
>= 3000ft
5 à 8 km
1000 à 3000 ft
1500m à 5 km
500 à 1000 ft
800 à 1500m
200 à 500 ft
< 800m
< 200 ft
Symboles :   Orages  Brouillard  Fortes neiges  Fortes précipitations  Vent > 20 kt
SIGMETs :   Divers  Orages  Givrage  Turbulence  Onde Orograph.  Cendres Volcan.






- Altitude de l'aérodrome : 1947 ft
- Code IATA : OBF


EDMO - Oberpfaffenhofen

DERNIER METAR :
  • 230220Z AUTO VRB02KT 9999 // FEW004/// BKN064/// OVC077/// 17/16 Q1021

METARs EXPIRÉS :
  • 230150Z AUTO VRB02KT 9999 // OVC075/// 17/16 Q1021
  • 230120Z AUTO VRB01KT 9999 // BKN043/// OVC070/// 17/16 Q1021
  • 230050Z AUTO 29007KT 9999 // FEW031/// SCT042/// OVC050/// 17/16 Q1021
  • 230020Z AUTO 27003KT 210V300 9999 // SCT038/// OVC052/// 18/17 Q1021
  • 222350Z AUTO 20002KT 9999 // OVC057/// 18/17 Q1021
  • 222320Z AUTO 25004KT 9999 // OVC061/// 18/17 Q1021
  • 222250Z AUTO 26004KT 9999 // FEW051/// SCT066/// OVC076/// 18/17 Q1021
  • 222220Z AUTO 31006KT 280V340 9999 // FEW015/// BKN040/// OVC056/// 18/18 Q1022
  • 222150Z AUTO 00000KT 9999 // FEW042/// BKN065/// BKN140/// 17/16 Q1021

Prévision TAF périmée.



MET'MAP, la Météo Aéronautique d'un coup d'oeil ! - Copyright ORBIFLY Décembre 2007 - Disclaimer

ORBIFLY MET'MAP TEAM :

Programmation & Développement : Alexandra Zaïnal
Sur une idée originale de : Baudouin d'Aumeries
Soutien technique & logistique : Manuel Goepfert
Assistance : Marc-Olivier Méhu




SOURCES & CREDITS :

   NOAA